sensor_id;sensor_type;location;lat;lon;timestamp;P1;durP1;ratioP1;P2;durP2;ratioP2
43626;SDS011;29217;52.586;13.442;2022-09-01T00:01:33;3.45;;;0.90;;
43626;SDS011;29217;52.586;13.442;2022-09-01T00:04:04;2.80;;;0.90;;
43626;SDS011;29217;52.586;13.442;2022-09-01T00:06:30;4.03;;;1.15;;
43626;SDS011;29217;52.586;13.442;2022-09-01T00:08:58;2.25;;;1.15;;
43626;SDS011;29217;52.586;13.442;2022-09-01T00:11:26;1.33;;;0.90;;
43626;SDS011;29217;52.586;13.442;2022-09-01T00:13:53;1.40;;;1.02;;
43626;SDS011;29217;52.586;13.442;2022-09-01T00:16:19;2.08;;;1.00;;
43626;SDS011;29217;52.586;13.442;2022-09-01T00:18:47;3.42;;;1.20;;
43626;SDS011;29217;52.586;13.442;2022-09-01T00:21:15;1.80;;;0.93;;
43626;SDS011;29217;52.586;13.442;2022-09-01T00:23:46;2.50;;;1.20;;
43626;SDS011;29217;52.586;13.442;2022-09-01T00:26:11;2.72;;;0.98;;
43626;SDS011;29217;52.586;13.442;2022-09-01T00:28:37;1.33;;;1.00;;
43626;SDS011;29217;52.586;13.442;2022-09-01T00:31:03;3.10;;;1.23;;
43626;SDS011;29217;52.586;13.442;2022-09-01T00:33:31;1.00;;;0.90;;
43626;SDS011;29217;52.586;13.442;2022-09-01T00:35:57;1.88;;;0.90;;
43626;SDS011;29217;52.586;13.442;2022-09-01T00:38:23;3.75;;;0.90;;
43626;SDS011;29217;52.586;13.442;2022-09-01T00:40:49;2.25;;;1.00;;
43626;SDS011;29217;52.586;13.442;2022-09-01T00:46:27;4.07;;;1.00;;
43626;SDS011;29217;52.586;13.442;2022-09-01T00:48:58;1.45;;;1.10;;
43626;SDS011;29217;52.586;13.442;2022-09-01T00:51:31;1.27;;;1.00;;
43626;SDS011;29217;52.586;13.442;2022-09-01T00:53:58;2.08;;;1.20;;
43626;SDS011;29217;52.586;13.442;2022-09-01T00:56:25;3.10;;;0.90;;
43626;SDS011;29217;52.586;13.442;2022-09-01T00:58:51;1.20;;;1.02;;
43626;SDS011;29217;52.586;13.442;2022-09-01T01:01:17;1.17;;;1.08;;
43626;SDS011;29217;52.586;13.442;2022-09-01T01:03:43;3.13;;;1.02;;
43626;SDS011;29217;52.586;13.442;2022-09-01T01:06:11;2.15;;;1.05;;
43626;SDS011;29217;52.586;13.442;2022-09-01T01:08:39;1.95;;;1.20;;
43626;SDS011;29217;52.586;13.442;2022-09-01T01:11:14;4.90;;;1.08;;
43626;SDS011;29217;52.586;13.442;2022-09-01T01:16:25;1.50;;;1.30;;
43626;SDS011;29217;52.586;13.442;2022-09-01T01:18:53;1.17;;;1.00;;
43626;SDS011;29217;52.586;13.442;2022-09-01T01:21:21;1.55;;;1.17;;
43626;SDS011;29217;52.586;13.442;2022-09-01T01:27:01;2.17;;;1.13;;
43626;SDS011;29217;52.586;13.442;2022-09-01T01:29:31;1.52;;;1.10;;
43626;SDS011;29217;52.586;13.442;2022-09-01T01:31:58;3.03;;;1.10;;
43626;SDS011;29217;52.586;13.442;2022-09-01T01:34:24;1.98;;;1.20;;
43626;SDS011;29217;52.586;13.442;2022-09-01T01:36:50;1.70;;;1.23;;
43626;SDS011;29217;52.586;13.442;2022-09-01T01:39:18;2.00;;;1.10;;
43626;SDS011;29217;52.586;13.442;2022-09-01T01:41:46;2.63;;;1.33;;
43626;SDS011;29217;52.586;13.442;2022-09-01T01:44:16;3.58;;;1.17;;
43626;SDS011;29217;52.586;13.442;2022-09-01T01:46:45;3.08;;;1.20;;
43626;SDS011;29217;52.586;13.442;2022-09-01T01:49:14;1.45;;;1.33;;
43626;SDS011;29217;52.586;13.442;2022-09-01T01:51:44;3.65;;;1.48;;
43626;SDS011;29217;52.586;13.442;2022-09-01T01:54:11;3.15;;;1.40;;
43626;SDS011;29217;52.586;13.442;2022-09-01T01:56:38;3.05;;;1.38;;
43626;SDS011;29217;52.586;13.442;2022-09-01T01:59:05;1.88;;;1.15;;
43626;SDS011;29217;52.586;13.442;2022-09-01T02:01:33;1.90;;;1.08;;
43626;SDS011;29217;52.586;13.442;2022-09-01T02:04:00;4.90;;;1.35;;
43626;SDS011;29217;52.586;13.442;2022-09-01T02:06:28;1.00;;;0.90;;
43626;SDS011;29217;52.586;13.442;2022-09-01T02:08:58;1.60;;;1.23;;
43626;SDS011;29217;52.586;13.442;2022-09-01T02:11:27;4.18;;;1.25;;
43626;SDS011;29217;52.586;13.442;2022-09-01T02:13:54;1.98;;;1.50;;
43626;SDS011;29217;52.586;13.442;2022-09-01T02:16:21;3.45;;;1.20;;
43626;SDS011;29217;52.586;13.442;2022-09-01T02:18:47;4.55;;;1.10;;
43626;SDS011;29217;52.586;13.442;2022-09-01T02:21:14;5.28;;;1.42;;
43626;SDS011;29217;52.586;13.442;2022-09-01T02:23:54;2.45;;;1.20;;
43626;SDS011;29217;52.586;13.442;2022-09-01T02:26:33;2.03;;;1.20;;
43626;SDS011;29217;52.586;13.442;2022-09-01T02:29:03;4.40;;;1.42;;
43626;SDS011;29217;52.586;13.442;2022-09-01T02:31:31;1.80;;;1.40;;
43626;SDS011;29217;52.586;13.442;2022-09-01T02:34:06;6.32;;;1.50;;
43626;SDS011;29217;52.586;13.442;2022-09-01T02:36:35;3.90;;;1.27;;
43626;SDS011;29217;52.586;13.442;2022-09-01T02:39:08;1.77;;;1.23;;
43626;SDS011;29217;52.586;13.442;2022-09-01T02:41:34;1.92;;;1.40;;
43626;SDS011;29217;52.586;13.442;2022-09-01T02:43:59;1.55;;;1.30;;
43626;SDS011;29217;52.586;13.442;2022-09-01T02:46:26;4.45;;;1.50;;
43626;SDS011;29217;52.586;13.442;2022-09-01T02:48:53;1.73;;;1.35;;
43626;SDS011;29217;52.586;13.442;2022-09-01T02:51:21;2.63;;;1.42;;
43626;SDS011;29217;52.586;13.442;2022-09-01T02:53:51;2.53;;;1.15;;
43626;SDS011;29217;52.586;13.442;2022-09-01T02:56:21;3.30;;;1.60;;
43626;SDS011;29217;52.586;13.442;2022-09-01T02:58:48;3.40;;;1.70;;
43626;SDS011;29217;52.586;13.442;2022-09-01T03:01:20;2.53;;;1.70;;
43626;SDS011;29217;52.586;13.442;2022-09-01T03:03:53;1.38;;;1.20;;
43626;SDS011;29217;52.586;13.442;2022-09-01T03:06:21;2.05;;;1.27;;
43626;SDS011;29217;52.586;13.442;2022-09-01T03:08:48;1.48;;;1.30;;
43626;SDS011;29217;52.586;13.442;2022-09-01T03:11:15;2.25;;;1.48;;
43626;SDS011;29217;52.586;13.442;2022-09-01T03:13:41;4.43;;;1.73;;
43626;SDS011;29217;52.586;13.442;2022-09-01T03:16:07;4.90;;;1.60;;
43626;SDS011;29217;52.586;13.442;2022-09-01T03:18:35;3.50;;;1.70;;
43626;SDS011;29217;52.586;13.442;2022-09-01T03:21:01;3.33;;;1.65;;
43626;SDS011;29217;52.586;13.442;2022-09-01T03:23:28;2.85;;;1.60;;
43626;SDS011;29217;52.586;13.442;2022-09-01T03:25:55;2.17;;;1.60;;
43626;SDS011;29217;52.586;13.442;2022-09-01T03:28:21;5.10;;;2.22;;
43626;SDS011;29217;52.586;13.442;2022-09-01T03:30:48;3.28;;;1.55;;
43626;SDS011;29217;52.586;13.442;2022-09-01T03:33:16;2.55;;;1.45;;
43626;SDS011;29217;52.586;13.442;2022-09-01T03:35:43;3.67;;;1.67;;
43626;SDS011;29217;52.586;13.442;2022-09-01T03:38:10;2.45;;;1.63;;
43626;SDS011;29217;52.586;13.442;2022-09-01T03:40:38;5.38;;;1.60;;
43626;SDS011;29217;52.586;13.442;2022-09-01T03:43:06;2.05;;;1.60;;
43626;SDS011;29217;52.586;13.442;2022-09-01T03:45:38;4.57;;;1.40;;
43626;SDS011;29217;52.586;13.442;2022-09-01T03:48:05;2.70;;;1.92;;
43626;SDS011;29217;52.586;13.442;2022-09-01T03:50:33;2.35;;;1.60;;
43626;SDS011;29217;52.586;13.442;2022-09-01T03:53:00;5.45;;;1.80;;
43626;SDS011;29217;52.586;13.442;2022-09-01T03:55:27;3.95;;;1.40;;
43626;SDS011;29217;52.586;13.442;2022-09-01T03:58:02;3.55;;;1.80;;
43626;SDS011;29217;52.586;13.442;2022-09-01T04:00:30;3.67;;;1.52;;
43626;SDS011;29217;52.586;13.442;2022-09-01T04:03:00;4.10;;;1.90;;
43626;SDS011;29217;52.586;13.442;2022-09-01T04:05:27;3.78;;;1.52;;
43626;SDS011;29217;52.586;13.442;2022-09-01T04:07:54;2.55;;;1.90;;
43626;SDS011;29217;52.586;13.442;2022-09-01T04:10:21;3.33;;;1.85;;
43626;SDS011;29217;52.586;13.442;2022-09-01T04:12:48;5.28;;;2.00;;
43626;SDS011;29217;52.586;13.442;2022-09-01T04:15:15;3.33;;;1.92;;
43626;SDS011;29217;52.586;13.442;2022-09-01T04:17:43;2.97;;;1.70;;
43626;SDS011;29217;52.586;13.442;2022-09-01T04:20:27;3.40;;;1.80;;
43626;SDS011;29217;52.586;13.442;2022-09-01T04:22:53;4.90;;;1.95;;
43626;SDS011;29217;52.586;13.442;2022-09-01T04:25:20;2.78;;;1.80;;
43626;SDS011;29217;52.586;13.442;2022-09-01T04:27:50;3.22;;;1.90;;
43626;SDS011;29217;52.586;13.442;2022-09-01T04:30:20;4.63;;;2.15;;
43626;SDS011;29217;52.586;13.442;2022-09-01T04:32:50;5.00;;;2.22;;
43626;SDS011;29217;52.586;13.442;2022-09-01T04:35:21;3.00;;;2.08;;
43626;SDS011;29217;52.586;13.442;2022-09-01T04:37:56;5.93;;;2.22;;
43626;SDS011;29217;52.586;13.442;2022-09-01T04:40:25;3.88;;;2.53;;
43626;SDS011;29217;52.586;13.442;2022-09-01T04:42:51;2.95;;;2.20;;
43626;SDS011;29217;52.586;13.442;2022-09-01T04:45:16;2.90;;;2.40;;
43626;SDS011;29217;52.586;13.442;2022-09-01T04:47:49;10.07;;;2.28;;
43626;SDS011;29217;52.586;13.442;2022-09-01T04:50:14;3.72;;;2.63;;
43626;SDS011;29217;52.586;13.442;2022-09-01T04:52:41;4.53;;;2.55;;
43626;SDS011;29217;52.586;13.442;2022-09-01T04:55:11;2.78;;;2.25;;
43626;SDS011;29217;52.586;13.442;2022-09-01T04:57:41;4.88;;;2.60;;
43626;SDS011;29217;52.586;13.442;2022-09-01T05:00:12;6.78;;;2.38;;
43626;SDS011;29217;52.586;13.442;2022-09-01T05:02:46;5.22;;;2.20;;
43626;SDS011;29217;52.586;13.442;2022-09-01T05:05:13;8.35;;;3.00;;
43626;SDS011;29217;52.586;13.442;2022-09-01T05:07:39;5.07;;;2.10;;
43626;SDS011;29217;52.586;13.442;2022-09-01T05:10:05;5.30;;;2.65;;
43626;SDS011;29217;52.586;13.442;2022-09-01T05:12:30;3.88;;;2.42;;
43626;SDS011;29217;52.586;13.442;2022-09-01T05:14:56;4.90;;;2.42;;
43626;SDS011;29217;52.586;13.442;2022-09-01T05:17:22;6.82;;;2.58;;
43626;SDS011;29217;52.586;13.442;2022-09-01T05:19:49;8.23;;;2.38;;
43626;SDS011;29217;52.586;13.442;2022-09-01T05:22:15;3.53;;;2.22;;
43626;SDS011;29217;52.586;13.442;2022-09-01T05:24:45;4.00;;;2.35;;
43626;SDS011;29217;52.586;13.442;2022-09-01T05:27:11;3.08;;;2.10;;
43626;SDS011;29217;52.586;13.442;2022-09-01T05:29:39;3.10;;;2.15;;
43626;SDS011;29217;52.586;13.442;2022-09-01T05:32:05;6.53;;;2.20;;
43626;SDS011;29217;52.586;13.442;2022-09-01T05:34:35;3.55;;;2.13;;
43626;SDS011;29217;52.586;13.442;2022-09-01T05:37:02;6.90;;;2.47;;
43626;SDS011;29217;52.586;13.442;2022-09-01T05:39:30;4.15;;;2.08;;
43626;SDS011;29217;52.586;13.442;2022-09-01T05:41:57;5.15;;;1.90;;
43626;SDS011;29217;52.586;13.442;2022-09-01T05:44:23;2.65;;;1.90;;
43626;SDS011;29217;52.586;13.442;2022-09-01T05:46:49;3.90;;;2.42;;
43626;SDS011;29217;52.586;13.442;2022-09-01T05:49:15;4.10;;;2.15;;
43626;SDS011;29217;52.586;13.442;2022-09-01T05:51:43;2.30;;;1.92;;
43626;SDS011;29217;52.586;13.442;2022-09-01T05:54:13;3.45;;;1.90;;
43626;SDS011;29217;52.586;13.442;2022-09-01T05:56:40;3.15;;;1.95;;
43626;SDS011;29217;52.586;13.442;2022-09-01T05:59:08;5.00;;;2.65;;
43626;SDS011;29217;52.586;13.442;2022-09-01T06:01:35;2.45;;;2.00;;
43626;SDS011;29217;52.586;13.442;2022-09-01T06:04:03;3.85;;;2.00;;
43626;SDS011;29217;52.586;13.442;2022-09-01T06:06:35;4.75;;;1.67;;
43626;SDS011;29217;52.586;13.442;2022-09-01T06:09:09;6.25;;;1.50;;
43626;SDS011;29217;52.586;13.442;2022-09-01T06:11:35;3.70;;;2.58;;
43626;SDS011;29217;52.586;13.442;2022-09-01T06:14:01;2.05;;;1.65;;
43626;SDS011;29217;52.586;13.442;2022-09-01T06:16:27;6.18;;;1.83;;
43626;SDS011;29217;52.586;13.442;2022-09-01T06:18:54;2.88;;;1.80;;
43626;SDS011;29217;52.586;13.442;2022-09-01T06:21:21;4.40;;;1.80;;
43626;SDS011;29217;52.586;13.442;2022-09-01T06:23:48;2.97;;;1.50;;
43626;SDS011;29217;52.586;13.442;2022-09-01T06:26:16;2.22;;;1.25;;
43626;SDS011;29217;52.586;13.442;2022-09-01T06:28:42;3.20;;;1.35;;
43626;SDS011;29217;52.586;13.442;2022-09-01T06:31:09;5.35;;;1.50;;
43626;SDS011;29217;52.586;13.442;2022-09-01T06:33:36;4.82;;;1.48;;
43626;SDS011;29217;52.586;13.442;2022-09-01T06:36:02;1.52;;;1.20;;
43626;SDS011;29217;52.586;13.442;2022-09-01T06:38:29;4.18;;;1.20;;
43626;SDS011;29217;52.586;13.442;2022-09-01T06:40:59;2.85;;;1.20;;
43626;SDS011;29217;52.586;13.442;2022-09-01T06:43:29;4.97;;;1.38;;
43626;SDS011;29217;52.586;13.442;2022-09-01T06:45:59;1.40;;;1.17;;
43626;SDS011;29217;52.586;13.442;2022-09-01T06:48:25;2.25;;;1.50;;
43626;SDS011;29217;52.586;13.442;2022-09-01T06:50:51;4.38;;;1.48;;
43626;SDS011;29217;52.586;13.442;2022-09-01T06:53:17;1.85;;;1.08;;
43626;SDS011;29217;52.586;13.442;2022-09-01T06:55:43;2.13;;;1.10;;
43626;SDS011;29217;52.586;13.442;2022-09-01T06:58:12;3.47;;;1.30;;
43626;SDS011;29217;52.586;13.442;2022-09-01T07:00:39;1.58;;;1.27;;
43626;SDS011;29217;52.586;13.442;2022-09-01T07:03:07;2.72;;;1.10;;
43626;SDS011;29217;52.586;13.442;2022-09-01T07:05:38;5.47;;;1.10;;
43626;SDS011;29217;52.586;13.442;2022-09-01T07:08:06;1.30;;;0.95;;
43626;SDS011;29217;52.586;13.442;2022-09-01T07:10:38;3.33;;;1.10;;
43626;SDS011;29217;52.586;13.442;2022-09-01T07:13:09;2.55;;;0.90;;
43626;SDS011;29217;52.586;13.442;2022-09-01T07:15:41;2.55;;;1.30;;
43626;SDS011;29217;52.586;13.442;2022-09-01T07:18:07;1.83;;;0.90;;
43626;SDS011;29217;52.586;13.442;2022-09-01T07:20:34;1.70;;;1.05;;
43626;SDS011;29217;52.586;13.442;2022-09-01T07:23:03;1.48;;;0.80;;
43626;SDS011;29217;52.586;13.442;2022-09-01T07:25:30;1.08;;;0.90;;
43626;SDS011;29217;52.586;13.442;2022-09-01T07:27:56;2.85;;;1.00;;
43626;SDS011;29217;52.586;13.442;2022-09-01T07:30:24;5.13;;;0.93;;
43626;SDS011;29217;52.586;13.442;2022-09-01T07:32:49;3.03;;;0.90;;
43626;SDS011;29217;52.586;13.442;2022-09-01T07:35:16;1.10;;;0.88;;
43626;SDS011;29217;52.586;13.442;2022-09-01T07:37:45;4.25;;;1.13;;
43626;SDS011;29217;52.586;13.442;2022-09-01T07:40:14;2.60;;;0.82;;
43626;SDS011;29217;52.586;13.442;2022-09-01T07:42:42;1.08;;;0.70;;
43626;SDS011;29217;52.586;13.442;2022-09-01T07:45:09;1.95;;;1.00;;
43626;SDS011;29217;52.586;13.442;2022-09-01T07:47:36;8.40;;;1.10;;
43626;SDS011;29217;52.586;13.442;2022-09-01T07:50:06;4.90;;;1.00;;
43626;SDS011;29217;52.586;13.442;2022-09-01T07:52:35;6.50;;;0.90;;
43626;SDS011;29217;52.586;13.442;2022-09-01T07:55:03;1.02;;;0.60;;
43626;SDS011;29217;52.586;13.442;2022-09-01T07:57:29;1.67;;;0.80;;
43626;SDS011;29217;52.586;13.442;2022-09-01T07:59:55;8.02;;;1.23;;
43626;SDS011;29217;52.586;13.442;2022-09-01T08:02:21;2.83;;;0.90;;
43626;SDS011;29217;52.586;13.442;2022-09-01T08:04:48;1.60;;;0.70;;
43626;SDS011;29217;52.586;13.442;2022-09-01T08:07:14;3.70;;;0.98;;
43626;SDS011;29217;52.586;13.442;2022-09-01T08:09:40;3.33;;;0.77;;
43626;SDS011;29217;52.586;13.442;2022-09-01T08:12:06;3.28;;;1.10;;
43626;SDS011;29217;52.586;13.442;2022-09-01T08:14:32;1.95;;;0.77;;
43626;SDS011;29217;52.586;13.442;2022-09-01T08:16:58;1.25;;;0.85;;
43626;SDS011;29217;52.586;13.442;2022-09-01T08:19:24;0.82;;;0.70;;
43626;SDS011;29217;52.586;13.442;2022-09-01T08:21:49;5.10;;;1.00;;
43626;SDS011;29217;52.586;13.442;2022-09-01T08:24:15;2.10;;;0.90;;
43626;SDS011;29217;52.586;13.442;2022-09-01T08:26:40;2.47;;;0.70;;
43626;SDS011;29217;52.586;13.442;2022-09-01T08:29:06;1.70;;;0.98;;
43626;SDS011;29217;52.586;13.442;2022-09-01T08:31:31;1.73;;;0.85;;
43626;SDS011;29217;52.586;13.442;2022-09-01T08:33:57;2.25;;;0.80;;
43626;SDS011;29217;52.586;13.442;2022-09-01T08:36:24;3.70;;;1.10;;
43626;SDS011;29217;52.586;13.442;2022-09-01T08:38:49;1.98;;;1.02;;
43626;SDS011;29217;52.586;13.442;2022-09-01T08:41:21;5.78;;;0.88;;
43626;SDS011;29217;52.586;13.442;2022-09-01T08:46:52;2.08;;;0.93;;
43626;SDS011;29217;52.586;13.442;2022-09-01T08:49:22;3.10;;;0.90;;
43626;SDS011;29217;52.586;13.442;2022-09-01T08:51:50;1.95;;;0.90;;
43626;SDS011;29217;52.586;13.442;2022-09-01T08:54:36;2.80;;;0.90;;
43626;SDS011;29217;52.586;13.442;2022-09-01T08:57:13;1.63;;;0.70;;
43626;SDS011;29217;52.586;13.442;2022-09-01T08:59:41;2.40;;;1.38;;
43626;SDS011;29217;52.586;13.442;2022-09-01T09:10:49;1.08;;;0.60;;
43626;SDS011;29217;52.586;13.442;2022-09-01T09:13:24;6.18;;;1.05;;
43626;SDS011;29217;52.586;13.442;2022-09-01T09:15:57;3.17;;;1.00;;
43626;SDS011;29217;52.586;13.442;2022-09-01T09:18:43;2.75;;;0.88;;
43626;SDS011;29217;52.586;13.442;2022-09-01T09:21:21;1.67;;;1.05;;
43626;SDS011;29217;52.586;13.442;2022-09-01T09:23:54;7.88;;;3.70;;
43626;SDS011;29217;52.586;13.442;2022-09-01T09:26:29;10.60;;;4.35;;
43626;SDS011;29217;52.586;13.442;2022-09-01T09:28:55;3.10;;;0.90;;
43626;SDS011;29217;52.586;13.442;2022-09-01T09:33:54;2.78;;;0.90;;
43626;SDS011;29217;52.586;13.442;2022-09-01T09:36:21;1.17;;;0.98;;
43626;SDS011;29217;52.586;13.442;2022-09-01T09:41:36;3.83;;;0.70;;
43626;SDS011;29217;52.586;13.442;2022-09-01T09:44:16;0.80;;;0.47;;
43626;SDS011;29217;52.586;13.442;2022-09-01T09:46:55;1.33;;;0.60;;
43626;SDS011;29217;52.586;13.442;2022-09-01T09:49:26;1.77;;;0.98;;
43626;SDS011;29217;52.586;13.442;2022-09-01T09:52:03;2.53;;;0.65;;
43626;SDS011;29217;52.586;13.442;2022-09-01T09:54:41;3.78;;;0.68;;
43626;SDS011;29217;52.586;13.442;2022-09-01T09:57:40;1.00;;;0.50;;
43626;SDS011;29217;52.586;13.442;2022-09-01T10:02:44;3.13;;;0.50;;
43626;SDS011;29217;52.586;13.442;2022-09-01T10:05:26;6.70;;;0.65;;
43626;SDS011;29217;52.586;13.442;2022-09-01T10:07:58;0.77;;;0.50;;
43626;SDS011;29217;52.586;13.442;2022-09-01T10:10:43;1.38;;;0.52;;
43626;SDS011;29217;52.586;13.442;2022-09-01T10:15:42;2.45;;;0.68;;
43626;SDS011;29217;52.586;13.442;2022-09-01T10:18:14;1.83;;;0.70;;
43626;SDS011;29217;52.586;13.442;2022-09-01T10:21:06;4.75;;;0.75;;
43626;SDS011;29217;52.586;13.442;2022-09-01T10:23:33;2.05;;;0.60;;
43626;SDS011;29217;52.586;13.442;2022-09-01T10:26:04;2.15;;;0.50;;
43626;SDS011;29217;52.586;13.442;2022-09-01T10:28:30;4.45;;;1.10;;
43626;SDS011;29217;52.586;13.442;2022-09-01T10:30:57;2.20;;;0.70;;
43626;SDS011;29217;52.586;13.442;2022-09-01T10:33:23;4.13;;;0.90;;
43626;SDS011;29217;52.586;13.442;2022-09-01T10:35:52;1.67;;;0.60;;
43626;SDS011;29217;52.586;13.442;2022-09-01T10:38:20;0.75;;;0.47;;
43626;SDS011;29217;52.586;13.442;2022-09-01T10:40:49;1.98;;;0.60;;
43626;SDS011;29217;52.586;13.442;2022-09-01T10:43:38;4.78;;;0.70;;
43626;SDS011;29217;52.586;13.442;2022-09-01T10:48:51;0.85;;;0.43;;
43626;SDS011;29217;52.586;13.442;2022-09-01T11:04:18;1.13;;;0.57;;
43626;SDS011;29217;52.586;13.442;2022-09-01T11:12:07;1.77;;;0.55;;
43626;SDS011;29217;52.586;13.442;2022-09-01T11:14:54;2.75;;;0.63;;
43626;SDS011;29217;52.586;13.442;2022-09-01T11:17:30;0.60;;;0.50;;
43626;SDS011;29217;52.586;13.442;2022-09-01T11:20:11;0.90;;;0.43;;
43626;SDS011;29217;52.586;13.442;2022-09-01T11:25:43;3.72;;;0.50;;
43626;SDS011;29217;52.586;13.442;2022-09-01T11:30:44;1.75;;;0.50;;
43626;SDS011;29217;52.586;13.442;2022-09-01T11:35:49;3.97;;;0.68;;
43626;SDS011;29217;52.586;13.442;2022-09-01T11:38:27;0.40;;;0.40;;
43626;SDS011;29217;52.586;13.442;2022-09-01T11:41:01;2.30;;;0.50;;
43626;SDS011;29217;52.586;13.442;2022-09-01T11:43:27;4.50;;;0.82;;
43626;SDS011;29217;52.586;13.442;2022-09-01T11:48:33;1.08;;;0.47;;
43626;SDS011;29217;52.586;13.442;2022-09-01T11:51:00;1.25;;;0.55;;
43626;SDS011;29217;52.586;13.442;2022-09-01T11:53:27;0.40;;;0.40;;
43626;SDS011;29217;52.586;13.442;2022-09-01T11:55:54;7.93;;;0.80;;
43626;SDS011;29217;52.586;13.442;2022-09-01T11:58:31;0.95;;;0.40;;
43626;SDS011;29217;52.586;13.442;2022-09-01T12:01:17;1.02;;;0.43;;
43626;SDS011;29217;52.586;13.442;2022-09-01T12:03:44;1.85;;;0.50;;
43626;SDS011;29217;52.586;13.442;2022-09-01T12:06:17;14.90;;;0.90;;
43626;SDS011;29217;52.586;13.442;2022-09-01T12:08:50;0.47;;;0.47;;
43626;SDS011;29217;52.586;13.442;2022-09-01T12:11:20;1.55;;;0.60;;
43626;SDS011;29217;52.586;13.442;2022-09-01T12:14:01;3.13;;;0.40;;
43626;SDS011;29217;52.586;13.442;2022-09-01T12:16:35;2.47;;;0.70;;
43626;SDS011;29217;52.586;13.442;2022-09-01T12:19:04;2.15;;;0.80;;
43626;SDS011;29217;52.586;13.442;2022-09-01T12:21:31;0.73;;;0.47;;
43626;SDS011;29217;52.586;13.442;2022-09-01T12:24:19;0.55;;;0.45;;
43626;SDS011;29217;52.586;13.442;2022-09-01T12:26:48;1.40;;;0.50;;
43626;SDS011;29217;52.586;13.442;2022-09-01T12:29:15;1.90;;;0.65;;
43626;SDS011;29217;52.586;13.442;2022-09-01T12:31:43;3.38;;;0.47;;
43626;SDS011;29217;52.586;13.442;2022-09-01T12:34:24;0.40;;;0.30;;
43626;SDS011;29217;52.586;13.442;2022-09-01T12:37:06;5.68;;;0.43;;
43626;SDS011;29217;52.586;13.442;2022-09-01T12:39:42;1.20;;;0.50;;
43626;SDS011;29217;52.586;13.442;2022-09-01T12:50:42;0.90;;;0.50;;
43626;SDS011;29217;52.586;13.442;2022-09-01T12:52:49;15.52;;;1.33;;
43626;SDS011;29217;52.586;13.442;2022-09-01T12:55:22;3.25;;;0.40;;
43626;SDS011;29217;52.586;13.442;2022-09-01T12:57:51;2.88;;;0.30;;
43626;SDS011;29217;52.586;13.442;2022-09-01T13:00:22;0.98;;;0.50;;
43626;SDS011;29217;52.586;13.442;2022-09-01T13:05:37;3.25;;;0.45;;
43626;SDS011;29217;52.586;13.442;2022-09-01T13:08:08;1.05;;;0.60;;
43626;SDS011;29217;52.586;13.442;2022-09-01T13:10:41;0.93;;;0.50;;
43626;SDS011;29217;52.586;13.442;2022-09-01T13:13:12;1.02;;;0.40;;
43626;SDS011;29217;52.586;13.442;2022-09-01T13:15:41;1.05;;;0.40;;
43626;SDS011;29217;52.586;13.442;2022-09-01T13:18:12;1.83;;;0.45;;
43626;SDS011;29217;52.586;13.442;2022-09-01T13:20:38;1.35;;;0.50;;
43626;SDS011;29217;52.586;13.442;2022-09-01T13:23:05;1.88;;;0.40;;
43626;SDS011;29217;52.586;13.442;2022-09-01T13:25:30;2.15;;;0.57;;
43626;SDS011;29217;52.586;13.442;2022-09-01T13:27:56;1.10;;;0.60;;
43626;SDS011;29217;52.586;13.442;2022-09-01T13:30:26;1.15;;;0.60;;
43626;SDS011;29217;52.586;13.442;2022-09-01T13:32:52;1.50;;;0.60;;
43626;SDS011;29217;52.586;13.442;2022-09-01T13:35:19;1.17;;;0.45;;
43626;SDS011;29217;52.586;13.442;2022-09-01T13:37:46;0.50;;;0.50;;
43626;SDS011;29217;52.586;13.442;2022-09-01T13:40:13;23.00;;;2.00;;
43626;SDS011;29217;52.586;13.442;2022-09-01T13:42:40;3.58;;;0.60;;
43626;SDS011;29217;52.586;13.442;2022-09-01T13:45:08;6.13;;;1.40;;
43626;SDS011;29217;52.586;13.442;2022-09-01T13:47:36;4.15;;;0.60;;
43626;SDS011;29217;52.586;13.442;2022-09-01T13:50:06;1.27;;;0.60;;
43626;SDS011;29217;52.586;13.442;2022-09-01T13:52:32;1.83;;;0.85;;
43626;SDS011;29217;52.586;13.442;2022-09-01T13:54:58;6.47;;;0.77;;
43626;SDS011;29217;52.586;13.442;2022-09-01T13:57:25;3.22;;;0.52;;
43626;SDS011;29217;52.586;13.442;2022-09-01T13:59:51;0.68;;;0.50;;
43626;SDS011;29217;52.586;13.442;2022-09-01T14:02:16;0.52;;;0.40;;
43626;SDS011;29217;52.586;13.442;2022-09-01T14:04:42;7.85;;;0.77;;
43626;SDS011;29217;52.586;13.442;2022-09-01T14:07:07;2.67;;;0.50;;
43626;SDS011;29217;52.586;13.442;2022-09-01T14:09:33;1.40;;;0.63;;
43626;SDS011;29217;52.586;13.442;2022-09-01T14:11:58;13.60;;;1.08;;
43626;SDS011;29217;52.586;13.442;2022-09-01T14:14:24;1.77;;;0.60;;
43626;SDS011;29217;52.586;13.442;2022-09-01T14:16:49;2.72;;;0.60;;
43626;SDS011;29217;52.586;13.442;2022-09-01T14:19:15;1.13;;;0.50;;
43626;SDS011;29217;52.586;13.442;2022-09-01T14:21:41;0.68;;;0.50;;
43626;SDS011;29217;52.586;13.442;2022-09-01T14:24:06;2.08;;;0.50;;
43626;SDS011;29217;52.586;13.442;2022-09-01T14:26:32;1.67;;;0.50;;
43626;SDS011;29217;52.586;13.442;2022-09-01T14:28:58;3.70;;;0.50;;
43626;SDS011;29217;52.586;13.442;2022-09-01T14:31:26;3.67;;;0.60;;
43626;SDS011;29217;52.586;13.442;2022-09-01T14:33:53;2.22;;;0.50;;
43626;SDS011;29217;52.586;13.442;2022-09-01T14:36:20;1.33;;;0.52;;
43626;SDS011;29217;52.586;13.442;2022-09-01T14:38:48;1.25;;;0.55;;
43626;SDS011;29217;52.586;13.442;2022-09-01T14:41:15;0.68;;;0.47;;
43626;SDS011;29217;52.586;13.442;2022-09-01T14:43:46;1.10;;;0.50;;
43626;SDS011;29217;52.586;13.442;2022-09-01T14:46:14;8.88;;;0.95;;
43626;SDS011;29217;52.586;13.442;2022-09-01T14:48:40;2.25;;;0.43;;
43626;SDS011;29217;52.586;13.442;2022-09-01T14:51:06;9.32;;;0.80;;
43626;SDS011;29217;52.586;13.442;2022-09-01T14:53:32;1.58;;;0.47;;
43626;SDS011;29217;52.586;13.442;2022-09-01T14:55:59;1.67;;;0.60;;
43626;SDS011;29217;52.586;13.442;2022-09-01T14:58:26;4.18;;;0.50;;
43626;SDS011;29217;52.586;13.442;2022-09-01T15:00:53;2.47;;;0.65;;
43626;SDS011;29217;52.586;13.442;2022-09-01T15:03:20;2.10;;;0.65;;
43626;SDS011;29217;52.586;13.442;2022-09-01T15:05:47;2.35;;;0.43;;
43626;SDS011;29217;52.586;13.442;2022-09-01T15:08:14;3.08;;;0.40;;
43626;SDS011;29217;52.586;13.442;2022-09-01T15:10:40;3.92;;;0.70;;
43626;SDS011;29217;52.586;13.442;2022-09-01T15:13:05;1.23;;;0.68;;
43626;SDS011;29217;52.586;13.442;2022-09-01T15:15:31;4.15;;;0.57;;
43626;SDS011;29217;52.586;13.442;2022-09-01T15:17:58;3.17;;;0.60;;
43626;SDS011;29217;52.586;13.442;2022-09-01T15:20:24;0.95;;;0.50;;
43626;SDS011;29217;52.586;13.442;2022-09-01T15:23:09;0.85;;;0.40;;
43626;SDS011;29217;52.586;13.442;2022-09-01T15:25:36;0.68;;;0.55;;
43626;SDS011;29217;52.586;13.442;2022-09-01T15:28:02;4.35;;;0.60;;
43626;SDS011;29217;52.586;13.442;2022-09-01T15:30:28;2.83;;;0.50;;
43626;SDS011;29217;52.586;13.442;2022-09-01T15:32:55;2.03;;;0.50;;
43626;SDS011;29217;52.586;13.442;2022-09-01T15:35:20;1.15;;;0.40;;
43626;SDS011;29217;52.586;13.442;2022-09-01T15:37:47;0.60;;;0.60;;
43626;SDS011;29217;52.586;13.442;2022-09-01T15:40:14;2.08;;;0.57;;
43626;SDS011;29217;52.586;13.442;2022-09-01T15:42:40;1.15;;;0.55;;
43626;SDS011;29217;52.586;13.442;2022-09-01T15:45:07;0.65;;;0.50;;
43626;SDS011;29217;52.586;13.442;2022-09-01T15:47:35;0.98;;;0.63;;
43626;SDS011;29217;52.586;13.442;2022-09-01T15:50:06;2.90;;;0.80;;
43626;SDS011;29217;52.586;13.442;2022-09-01T15:52:34;4.25;;;0.50;;
43626;SDS011;29217;52.586;13.442;2022-09-01T15:55:11;0.88;;;0.70;;
43626;SDS011;29217;52.586;13.442;2022-09-01T15:57:37;2.33;;;0.70;;